METAR Data
IDs: Format: Raw Decoded Include TAF

Data at: 0044 UTC 20 Jul 2019

METAR for:KTNU (Newton Muni, IA, US)
Text:KTNU 200035Z AUTO 20008KT 10SM CLR 32/27 A2971 RMK AO2 PWINO
Temperature: 32.0°C ( 90°F)
Dewpoint: 27.0°C ( 81°F) [RH = 75%]
Pressure (altimeter):29.71 inches Hg (1006.2 mb)
Winds:from the SSW (200 degrees) at 9 MPH (8 knots; 4.1 m/s)
Visibility:10 or more sm (16+ km)
Ceiling:at least 12,000 feet AGL
Clouds:sky clear below 12,000 feet AGL
QC Flag:automated observation with no human augmentation